Time;durP1;ratioP1;P1;durP2;ratioP2;P2;SDS_P1;SDS_P2;PMS_P1;PMS_P2;Temp;Humidity;BMP_temperature;BMP_pressure;BME280_temperature;BME280_humidity;BME280_pressure;Samples;Min_cycle;Max_cycle;Signal;HPM_P1;HPM_P2
2022/03/14 00:00:21;;;;;;;32.40;20.00;;;;;;;-0.46;60.68;101590.83;107623;1270;138094;-73
2022/03/14 00:03:10;;;;;;;37.70;20.20;;;;;;;-0.48;60.39;101589.21;107636;1271;109032;-72
2022/03/14 00:05:45;;;;;;;35.40;19.10;;;;;;;-0.50;60.40;101593.09;107559;1270;138058;-71
2022/03/14 00:08:18;;;;;;;35.70;20.90;;;;;;;-0.50;60.56;101592.23;107713;1270;94876;-72
2022/03/14 00:10:51;;;;;;;36.50;20.60;;;;;;;-0.51;60.57;101596.80;107546;1270;139001;-72
2022/03/14 00:13:23;;;;;;;33.10;19.20;;;;;;;-0.53;60.66;101591.42;107657;1271;110981;-73
2022/03/14 00:15:57;;;;;;;28.60;17.50;;;;;;;-0.54;60.50;101592.61;107737;1270;108329;-72
2022/03/14 00:18:34;;;;;;;33.70;19.30;;;;;;;-0.52;60.54;101590.13;107564;1270;138387;-72
2022/03/14 00:21:10;;;;;;;31.40;18.90;;;;;;;-0.50;60.68;101591.36;107699;1270;95271;-72
2022/03/14 00:23:43;;;;;;;38.40;20.20;;;;;;;-0.49;60.65;101592.42;107615;1270;138501;-72
2022/03/14 00:26:16;;;;;;;32.80;19.20;;;;;;;-0.49;60.37;101588.16;107688;1269;110787;-71
2022/03/14 00:28:48;;;;;;;35.10;19.60;;;;;;;-0.49;60.39;101591.23;107567;1270;138369;-72
2022/03/14 00:31:23;;;;;;;34.80;19.40;;;;;;;-0.50;60.49;101590.17;107666;1269;108167;-72
2022/03/14 00:33:56;;;;;;;32.50;19.10;;;;;;;-0.52;60.87;101591.16;107674;1270;95179;-71
2022/03/14 00:36:28;;;;;;;34.70;19.00;;;;;;;-0.55;60.89;101590.34;107592;1270;137213;-72
2022/03/14 00:39:00;;;;;;;34.70;18.10;;;;;;;-0.58;60.81;101590.40;107788;1269;111249;-73
2022/03/14 00:41:33;;;;;;;30.20;18.80;;;;;;;-0.59;60.61;101593.79;107621;1270;138731;-73
2022/03/14 00:44:05;;;;;;;33.30;18.80;;;;;;;-0.57;60.70;101589.40;107682;1271;107647;-72
2022/03/14 00:46:39;;;;;;;33.30;19.00;;;;;;;-0.57;60.52;101591.63;107573;1269;138913;-72
2022/03/14 00:49:12;;;;;;;30.70;19.00;;;;;;;-0.55;60.72;101588.44;107735;1269;94809;-72
2022/03/14 00:51:44;;;;;;;35.00;18.20;;;;;;;-0.55;60.39;101593.57;107652;1271;111072;-72
2022/03/14 00:54:17;;;;;;;34.10;19.70;;;;;;;-0.58;60.35;101591.58;107679;1269;137895;-72
2022/03/14 00:56:49;;;;;;;34.80;19.20;;;;;;;-0.61;60.35;101586.73;107668;1269;107741;-72
2022/03/14 00:59:22;;;;;;;33.70;19.20;;;;;;;-0.63;60.39;101583.25;107651;1269;137788;-73
2022/03/14 01:01:54;;;;;;;31.00;18.60;;;;;;;-0.65;60.25;101581.14;107723;1271;94970;-73
2022/03/14 01:04:27;;;;;;;32.70;19.20;;;;;;;-0.67;60.80;101582.75;107654;1269;137804;-74
2022/03/14 01:07:02;;;;;;;29.20;17.70;;;;;;;-0.70;60.49;101582.17;107754;1270;107505;-72
2022/03/14 01:09:34;;;;;;;33.80;18.90;;;;;;;-0.71;61.20;101581.26;107750;1269;108393;-73
2022/03/14 01:12:08;;;;;;;33.30;17.40;;;;;;;-0.71;61.09;101585.52;107572;1271;140120;-73
2022/03/14 01:14:42;;;;;;;33.90;18.00;;;;;;;-0.71;60.66;101586.75;107841;1269;94840;-72
2022/03/14 01:17:14;;;;;;;30.70;17.90;;;;;;;-0.69;60.72;101586.27;107687;1269;138217;-73
2022/03/14 01:19:46;;;;;;;30.60;18.70;;;;;;;-0.68;60.78;101587.17;107744;1270;108334;-74
2022/03/14 01:22:18;;;;;;;32.40;18.30;;;;;;;-0.67;60.38;101584.48;107684;1271;107836;-74
2022/03/14 01:24:51;;;;;;;30.50;18.40;;;;;;;-0.66;60.67;101582.46;107587;1269;144710;-72
2022/03/14 01:27:23;;;;;;;35.10;19.20;;;;;;;-0.68;60.92;101587.54;107813;1269;94393;-73
2022/03/14 01:29:55;;;;;;;32.90;19.40;;;;;;;-0.69;61.14;101587.14;107587;1271;138211;-72
2022/03/14 01:32:28;;;;;;;34.60;19.40;;;;;;;-0.71;60.64;101583.49;107708;1271;107684;-72
2022/03/14 01:35:00;;;;;;;30.30;18.40;;;;;;;-0.73;60.75;101585.96;107656;1269;137846;-73
2022/03/14 01:37:34;;;;;;;31.00;18.00;;;;;;;-0.74;60.26;101589.33;107711;1271;94631;-74
2022/03/14 01:40:11;;;;;;;34.20;17.70;;;;;;;-0.73;60.29;101585.98;107638;1271;95249;-73
2022/03/14 01:42:44;;;;;;;30.20;16.90;;;;;;;-0.69;60.45;101582.17;107663;1270;139145;-74
2022/03/14 01:45:19;;;;;;;34.60;18.50;;;;;;;-0.66;60.78;101579.55;107829;1269;107910;-74
2022/03/14 01:47:51;;;;;;;34.70;18.40;;;;;;;-0.65;60.65;101581.83;107564;1270;138696;-73
2022/03/14 01:50:24;;;;;;;30.90;17.90;;;;;;;-0.62;60.28;101581.56;107737;1270;94524;-73
2022/03/14 01:52:56;;;;;;;31.90;18.00;;;;;;;-0.61;60.49;101585.02;107611;1270;139681;-73
2022/03/14 01:55:30;;;;;;;32.20;18.60;;;;;;;-0.64;60.69;101586.11;107730;1270;109994;-72
2022/03/14 01:58:03;;;;;;;35.10;19.10;;;;;;;-0.68;60.28;101585.96;107731;1270;105814;-73
2022/03/14 02:00:36;;;;;;;31.80;19.50;;;;;;;-0.72;60.36;101586.84;107593;1271;139033;-73
2022/03/14 02:03:08;;;;;;;31.50;18.10;;;;;;;-0.75;60.87;101594.42;107733;1270;95182;-75
2022/03/14 02:05:41;;;;;;;35.20;19.50;;;;;;;-0.79;61.15;101594.98;107646;1269;138121;-74
2022/03/14 02:08:13;;;;;;;33.40;18.90;;;;;;;-0.84;60.99;101594.48;107769;1271;109247;-74
2022/03/14 02:10:46;;;;;;;30.90;18.10;;;;;;;-0.87;60.62;101598.80;107602;1270;138770;-74
2022/03/14 02:13:22;;;;;;;30.10;18.30;;;;;;;-0.89;61.25;101599.58;107781;1269;108824;-74
2022/03/14 02:15:55;;;;;;;28.50;17.70;;;;;;;-0.88;60.71;101599.44;107731;1269;94765;-74
2022/03/14 02:18:27;;;;;;;29.80;17.80;;;;;;;-0.85;60.94;101597.66;107653;1269;138026;-73
2022/03/14 02:21:00;;;;;;;36.40;19.20;;;;;;;-0.83;60.95;101599.27;107801;1269;110711;-73
2022/03/14 02:23:33;;;;;;;34.30;18.60;;;;;;;-0.82;60.99;101600.34;107643;1269;137834;-73
2022/03/14 02:26:06;;;;;;;31.20;18.40;;;;;;;-0.82;60.71;101598.81;107716;1270;108050;-74
2022/03/14 02:28:38;;;;;;;32.90;19.40;;;;;;;-0.81;60.84;101600.52;107641;1269;138246;-73
2022/03/14 02:31:13;;;;;;;32.00;19.20;;;;;;;-0.84;60.57;101602.82;107790;1269;94715;-73
2022/03/14 02:33:45;;;;;;;34.20;19.20;;;;;;;-0.86;61.06;101599.33;107803;1270;110837;-74
2022/03/14 02:36:18;;;;;;;33.10;19.40;;;;;;;-0.90;60.86;101604.83;107662;1270;138918;-73
2022/03/14 02:38:50;;;;;;;32.30;18.90;;;;;;;-0.95;60.61;101606.02;107749;1269;108219;-74
2022/03/14 02:41:24;;;;;;;32.30;19.10;;;;;;;-0.98;61.15;101615.11;107569;1269;139966;-73
2022/03/14 02:44:00;;;;;;;32.80;17.80;;;;;;;-1.02;61.11;101616.02;107767;1269;94947;-73
2022/03/14 02:46:34;;;;;;;31.80;18.50;;;;;;;-1.05;61.12;101616.77;107680;1268;139351;-72
2022/03/14 02:49:07;;;;;;;32.90;17.60;;;;;;;-1.06;61.51;101615.00;107663;1269;107816;-73
2022/03/14 02:51:39;;;;;;;36.00;18.40;;;;;;;-1.07;61.59;101609.34;107753;1268;107924;-74
2022/03/14 02:54:12;;;;;;;30.70;17.90;;;;;;;-1.08;61.88;101610.50;107692;1269;137720;-73
2022/03/14 02:56:44;;;;;;;30.10;18.40;;;;;;;-1.10;61.88;101611.09;107755;1269;94997;-73
2022/03/14 02:59:19;;;;;;;32.30;19.10;;;;;;;-1.12;61.70;101607.77;107686;1269;137774;-73
2022/03/14 03:01:51;;;;;;;30.70;18.00;;;;;;;-1.14;61.90;101608.02;107763;1269;108184;-73
2022/03/14 03:04:24;;;;;;;31.60;18.60;;;;;;;-1.17;61.85;101609.81;107750;1269;107788;-74
2022/03/14 03:06:57;;;;;;;30.90;19.30;;;;;;;-1.19;62.01;101610.42;107584;1270;138318;-73
2022/03/14 03:09:30;;;;;;;34.90;18.70;;;;;;;-1.23;62.20;101609.25;107785;1270;94782;-74
2022/03/14 03:12:02;;;;;;;31.10;17.80;;;;;;;-1.27;62.10;101612.15;107712;1269;138322;-74
2022/03/14 03:14:38;;;;;;;32.50;17.80;;;;;;;-1.28;62.34;101615.19;107718;1269;108344;-74
2022/03/14 03:17:10;;;;;;;32.60;17.30;;;;;;;-1.28;62.18;101616.90;107667;1269;140398;-73
2022/03/14 03:19:42;;;;;;;33.10;18.00;;;;;;;-1.28;62.75;101623.56;107752;1269;94811;-74
2022/03/14 03:22:15;;;;;;;30.80;18.60;;;;;;;-1.27;62.32;101622.92;107772;1269;94775;-73
2022/03/14 03:24:52;;;;;;;30.70;18.70;;;;;;;-1.24;62.06;101632.09;107627;1269;137581;-73
2022/03/14 03:27:24;;;;;;;30.50;17.70;;;;;;;-1.24;62.14;101630.41;107839;1269;108107;-74
2022/03/14 03:29:56;;;;;;;33.90;18.30;;;;;;;-1.26;62.19;101635.60;107647;1269;138156;-73
2022/03/14 03:32:31;;;;;;;31.10;18.90;;;;;;;-1.29;62.09;101635.98;107841;1268;94875;-74
2022/03/14 03:35:03;;;;;;;31.30;18.40;;;;;;;-1.29;62.07;101635.63;107654;1269;138341;-73
2022/03/14 03:37:35;;;;;;;30.80;18.00;;;;;;;-1.32;62.33;101636.88;107827;1269;111124;-73
2022/03/14 03:40:09;;;;;;;29.80;17.50;;;;;;;-1.37;62.26;101641.13;107717;1268;108939;-73
2022/03/14 03:42:42;;;;;;;32.60;17.40;;;;;;;-1.40;62.78;101642.90;107643;1269;138507;-74
2022/03/14 03:45:14;;;;;;;28.70;16.50;;;;;;;-1.41;62.91;101644.77;107774;1269;95286;-74
2022/03/14 03:47:46;;;;;;;28.30;17.20;;;;;;;-1.40;62.40;101645.65;107697;1267;138456;-74
2022/03/14 03:50:19;;;;;;;31.20;17.40;;;;;;;-1.39;62.80;101644.67;107739;1269;110584;-73
2022/03/14 03:52:51;;;;;;;33.80;18.20;;;;;;;-1.40;62.79;101645.79;107681;1269;137603;-73
2022/03/14 03:55:25;;;;;;;32.20;18.50;;;;;;;-1.44;62.86;101647.16;107750;1269;107765;-73
2022/03/14 03:57:57;;;;;;;33.60;18.40;;;;;;;-1.46;63.40;101651.85;107661;1270;94913;-73
2022/03/14 04:00:30;;;;;;;32.20;18.20;;;;;;;-1.48;63.40;101651.77;107681;1269;138026;-73
2022/03/14 04:03:02;;;;;;;31.80;18.40;;;;;;;-1.52;63.10;101657.25;107717;1269;112234;-73
2022/03/14 04:05:39;;;;;;;36.10;19.30;;;;;;;-1.55;63.00;101655.62;107660;1269;138547;-74
2022/03/14 04:08:11;;;;;;;33.20;18.40;;;;;;;-1.56;63.06;101653.36;107749;1269;107792;-73
2022/03/14 04:10:45;;;;;;;28.90;17.40;;;;;;;-1.56;62.92;101652.02;107685;1270;138783;-73
2022/03/14 04:13:18;;;;;;;30.40;17.70;;;;;;;-1.54;62.70;101653.29;107825;1269;95687;-73
2022/03/14 04:15:52;;;;;;;33.60;18.40;;;;;;;-1.53;63.50;101657.73;107783;1269;111090;-73
2022/03/14 04:18:26;;;;;;;34.20;18.70;;;;;;;-1.54;63.32;101653.27;107771;1269;138449;-73
2022/03/14 04:20:59;;;;;;;35.80;18.80;;;;;;;-1.56;63.55;101654.23;107634;1269;108465;-73
2022/03/14 04:23:31;;;;;;;29.80;18.00;;;;;;;-1.61;62.93;101653.17;107680;1269;138222;-73
2022/03/14 04:26:04;;;;;;;33.10;19.00;;;;;;;-1.64;63.39;101654.59;107760;1269;94500;-73
2022/03/14 04:28:37;;;;;;;32.70;18.10;;;;;;;-1.67;63.36;101652.57;107628;1270;139552;-73
2022/03/14 04:31:09;;;;;;;37.10;18.90;;;;;;;-1.68;63.31;101653.39;107588;1270;109628;-74
2022/03/14 04:33:42;;;;;;;31.40;18.60;;;;;;;-1.70;63.97;101654.48;107796;1269;106809;-72
2022/03/14 04:36:18;;;;;;;31.30;18.50;;;;;;;-1.72;63.71;101653.39;107627;1269;138430;-73
2022/03/14 04:38:50;;;;;;;28.00;17.70;;;;;;;-1.72;63.73;101658.33;107802;1270;94864;-73
2022/03/14 04:41:22;;;;;;;31.60;17.80;;;;;;;-1.72;63.89;101661.42;107719;1269;140375;-73
2022/03/14 04:43:56;;;;;;;35.10;19.10;;;;;;;-1.73;64.01;101661.91;107816;1270;108883;-73
2022/03/14 04:46:28;;;;;;;37.10;19.30;;;;;;;-1.75;63.94;101667.59;107638;1271;108513;-73
2022/03/14 04:49:04;;;;;;;37.90;19.80;;;;;;;-1.78;64.27;101673.79;107729;1269;137740;-74
2022/03/14 04:51:37;;;;;;;34.90;19.40;;;;;;;-1.80;64.10;101672.35;107809;1270;94834;-74
2022/03/14 04:54:10;;;;;;;34.30;18.00;;;;;;;-1.82;64.16;101676.17;107683;1269;138633;-74
2022/03/14 04:56:43;;;;;;;34.00;18.50;;;;;;;-1.83;64.64;101683.31;107678;1270;110307;-74
2022/03/14 04:59:16;;;;;;;33.60;17.80;;;;;;;-1.83;64.67;101688.09;107668;1269;138553;-74
2022/03/14 05:01:48;;;;;;;31.90;18.70;;;;;;;-1.82;64.42;101693.59;107680;1269;95097;-74
2022/03/14 05:04:22;;;;;;;31.60;17.70;;;;;;;-1.76;64.63;101692.61;107810;1269;94629;-74
2022/03/14 05:06:56;;;;;;;34.50;17.80;;;;;;;-1.71;64.36;101695.73;107619;1270;138190;-74
2022/03/14 05:09:28;;;;;;;46.50;18.70;;;;;;;-1.62;63.89;101693.72;107786;1270;108901;-74
2022/03/14 05:12:01;;;;;;;33.10;18.50;;;;;;;-1.53;63.73;101689.98;107590;1270;138083;-74
2022/03/14 05:14:34;;;;;;;33.90;18.60;;;;;;;-1.43;63.59;101694.13;107711;1270;94835;-74
2022/03/14 05:17:07;;;;;;;33.70;19.30;;;;;;;-1.33;63.47;101691.11;107535;1271;137895;-74
2022/03/14 05:19:40;;;;;;;28.40;18.10;;;;;;;-1.24;63.33;101692.66;107762;1269;110221;-73
2022/03/14 05:22:14;;;;;;;33.70;19.00;;;;;;;-1.13;63.02;101691.70;107708;1269;108491;-73
2022/03/14 05:24:50;;;;;;;;;;;;;;;-0.96;63.18;101691.17;107664;1269;138829;-73
2022/03/14 05:27:22;;;;;;;33.10;16.90;;;;;;;-0.74;62.63;101689.42;107556;1271;95014;-73
2022/03/14 05:29:57;;;;;;;27.40;16.70;;;;;;;-0.28;62.08;101684.74;107621;1271;138937;-72
2022/03/14 05:32:30;;;;;;;30.00;17.70;;;;;;;0.39;61.22;101689.91;107664;1269;110243;-73
2022/03/14 05:35:11;;;;;;;28.90;17.50;;;;;;;1.04;59.65;101688.50;107598;1271;139389;-73
2022/03/14 05:37:44;;;;;;;29.70;18.00;;;;;;;1.67;58.49;101691.83;107692;1271;106711;-74
2022/03/14 05:40:20;;;;;;;28.40;17.70;;;;;;;2.10;56.83;101699.83;107700;1269;96055;-73
2022/03/14 05:42:53;;;;;;;28.30;17.40;;;;;;;2.40;55.94;101701.95;107612;1269;137522;-73
2022/03/14 05:45:26;;;;;;;26.40;17.00;;;;;;;2.63;55.14;101708.17;107725;1269;110762;-73
2022/03/14 05:47:58;;;;;;;28.80;17.40;;;;;;;2.92;54.23;101703.52;107511;1271;138662;-73
2022/03/14 05:50:32;;;;;;;25.70;16.70;;;;;;;3.35;53.18;101700.65;107748;1270;110028;-73
2022/03/14 05:53:04;;;;;;;25.40;16.90;;;;;;;3.94;51.81;101700.78;107547;1270;138099;-73
2022/03/14 05:55:38;;;;;;;24.60;16.20;;;;;;;4.62;50.95;101697.42;107683;1270;94770;-73
2022/03/14 05:58:10;;;;;;;26.80;15.90;;;;;;;5.52;48.87;101690.36;107725;1270;108907;-73
2022/03/14 06:00:43;;;;;;;26.80;16.00;;;;;;;6.40;48.29;101696.95;107535;1270;138162;-73
2022/03/14 06:03:16;;;;;;;22.40;15.50;;;;;;;7.31;46.73;101685.41;107691;1269;107970;-74
2022/03/14 06:05:49;;;;;;;25.90;17.00;;;;;;;8.11;43.31;101686.67;107671;1270;138347;-74
2022/03/14 06:08:22;;;;;;;24.20;15.50;;;;;;;8.76;43.37;101680.61;107790;1269;95000;-74
2022/03/14 06:10:55;;;;;;;24.60;15.60;;;;;;;9.52;42.46;101678.09;107646;1270;138454;-73
2022/03/14 06:13:28;;;;;;;24.20;16.00;;;;;;;10.12;39.89;101684.50;107643;1271;110461;-74
2022/03/14 06:16:00;;;;;;;25.00;16.10;;;;;;;10.39;38.00;101685.55;107611;1270;109557;-73
2022/03/14 06:18:33;;;;;;;21.80;15.50;;;;;;;10.56;38.09;101676.17;107711;1269;138728;-73
2022/03/14 06:21:06;;;;;;;24.30;15.80;;;;;;;10.99;38.08;101672.42;107737;1270;94859;-73
2022/03/14 06:23:40;;;;;;;22.10;15.50;;;;;;;11.64;37.23;101672.84;107516;1270;138384;-73
2022/03/14 06:26:14;;;;;;;22.00;16.30;;;;;;;12.39;36.95;101675.19;107582;1271;108994;-73
2022/03/14 06:28:47;;;;;;;22.70;15.70;;;;;;;13.12;35.13;101671.61;107508;1270;138199;-73
2022/03/14 06:31:21;;;;;;;23.40;15.40;;;;;;;13.69;34.42;101668.49;107756;1269;94964;-74
2022/03/14 06:33:53;;;;;;;22.90;15.60;;;;;;;14.11;33.17;101670.65;107612;1270;94792;-73
2022/03/14 06:36:26;;;;;;;21.00;14.50;;;;;;;14.74;33.12;101672.40;107551;1270;137736;-73
2022/03/14 06:39:00;;;;;;;21.10;15.50;;;;;;;15.18;31.63;101667.50;107815;1269;108792;-74
2022/03/14 06:41:39;;;;;;;20.00;14.90;;;;;;;15.55;31.22;101668.17;107706;1270;138201;-73
2022/03/14 06:44:13;;;;;;;20.10;14.40;;;;;;;15.91;29.76;101669.36;107686;1270;94870;-73
2022/03/14 06:46:46;;;;;;;22.90;15.70;;;;;;;16.07;29.07;101667.27;107611;1269;138004;-73
2022/03/14 06:49:19;;;;;;;24.10;15.90;;;;;;;16.46;28.74;101675.80;107719;1269;109665;-74
2022/03/14 06:51:52;;;;;;;18.60;15.10;;;;;;;16.79;27.76;101672.03;107703;1270;108441;-74
2022/03/14 06:54:24;;;;;;;22.20;15.30;;;;;;;16.90;27.35;101667.98;107600;1269;137996;-74
2022/03/14 06:56:57;;;;;;;20.50;15.60;;;;;;;17.28;27.16;101671.52;107683;1270;95754;-73
2022/03/14 06:59:29;;;;;;;25.70;16.40;;;;;;;17.58;26.83;101670.56;107617;1270;138046;-74
2022/03/14 07:02:03;;;;;;;22.80;15.80;;;;;;;17.96;26.34;101672.23;107618;1271;109262;-73
2022/03/14 07:04:36;;;;;;;22.60;15.60;;;;;;;18.22;26.27;101670.10;107787;1269;109120;-73
2022/03/14 07:07:11;;;;;;;24.00;15.60;;;;;;;18.67;26.18;101663.83;107533;1270;138361;-73
2022/03/14 07:09:43;;;;;;;20.90;15.20;;;;;;;19.32;26.25;101660.04;107730;1270;95056;-73
2022/03/14 07:12:17;;;;;;;22.30;14.90;;;;;;;19.83;25.12;101662.06;107584;1270;138035;-73
2022/03/14 07:14:49;;;;;;;22.20;15.10;;;;;;;20.03;24.51;101660.55;107728;1270;109089;-73
2022/03/14 07:17:23;;;;;;;26.80;15.30;;;;;;;20.22;23.87;101662.23;107661;1269;138870;-73
2022/03/14 07:19:55;;;;;;;25.70;15.10;;;;;;;20.09;23.20;101668.75;107626;1271;109984;-73
2022/03/14 07:22:30;;;;;;;21.20;14.90;;;;;;;20.09;23.42;101665.19;107707;1271;94815;-73
2022/03/14 07:25:08;;;;;;;21.90;15.60;;;;;;;20.18;23.39;101672.52;107607;1269;137497;-73
2022/03/14 07:27:41;;;;;;;21.10;15.90;;;;;;;20.42;22.78;101670.46;107740;1270;110151;-74
2022/03/14 07:30:16;;;;;;;23.70;15.70;;;;;;;20.36;22.71;101671.30;107658;1269;137975;-74
2022/03/14 07:32:49;;;;;;;24.70;16.40;;;;;;;20.44;22.06;101667.55;107708;1269;108542;-74
2022/03/14 07:35:23;;;;;;;20.60;15.50;;;;;;;19.82;21.02;101670.41;107533;1271;138139;-73
2022/03/14 07:37:56;;;;;;;25.10;15.90;;;;;;;19.31;22.04;101669.94;107657;1271;96332;-75
2022/03/14 07:40:36;;;;;;;23.10;16.50;;;;;;;19.37;22.39;101666.52;107745;1269;111395;-72
2022/03/14 07:43:09;;;;;;;24.60;16.30;;;;;;;19.28;21.96;101667.95;107630;1269;137600;-72
2022/03/14 07:45:46;;;;;;;22.10;16.30;;;;;;;19.40;22.80;101667.80;107713;1270;108861;-72
2022/03/14 07:48:19;;;;;;;25.90;17.30;;;;;;;19.51;21.43;101666.92;107593;1270;138899;-72
2022/03/14 07:50:53;;;;;;;22.40;16.20;;;;;;;19.42;22.47;101668.58;107744;1269;94643;-72
2022/03/14 07:53:26;;;;;;;23.40;16.90;;;;;;;19.51;22.20;101669.56;107614;1270;137844;-79
2022/03/14 07:55:59;;;;;;;27.80;16.70;;;;;;;19.75;22.63;101665.27;107695;1271;106906;-77
2022/03/14 07:58:32;;;;;;;24.50;16.40;;;;;;;20.25;22.68;101666.89;107730;1269;108744;-74
2022/03/14 08:01:05;;;;;;;26.20;16.30;;;;;;;20.68;22.01;101666.52;107627;1270;139168;-78
2022/03/14 08:03:38;;;;;;;25.90;16.40;;;;;;;20.97;21.75;101665.84;107639;1270;94718;-74
2022/03/14 08:06:17;;;;;;;27.90;16.20;;;;;;;21.09;21.53;101663.57;107547;1271;138836;-75
2022/03/14 08:08:50;;;;;;;24.60;16.30;;;;;;;21.40;21.55;101670.98;107669;1270;108405;-76
2022/03/14 08:11:22;;;;;;;25.30;15.70;;;;;;;21.59;20.97;101671.68;107664;1270;138559;-76
2022/03/14 08:13:55;;;;;;;26.00;17.20;;;;;;;21.69;20.96;101670.91;107674;1271;94627;-77
2022/03/14 08:16:28;;;;;;;24.60;16.30;;;;;;;21.89;20.68;101668.05;107705;1271;94805;-77
2022/03/14 08:19:03;;;;;;;25.60;16.90;;;;;;;22.16;20.39;101667.91;107593;1271;138815;-77
2022/03/14 08:21:36;;;;;;;22.30;16.80;;;;;;;22.45;20.83;101662.89;107620;1271;109343;-76
2022/03/14 08:24:09;;;;;;;27.00;16.50;;;;;;;22.85;20.39;101656.40;107623;1270;139426;-76
2022/03/14 08:26:43;;;;;;;20.00;16.20;;;;;;;23.09;19.97;101656.34;107708;1271;94849;-76
2022/03/14 08:29:16;;;;;;;22.40;16.80;;;;;;;23.01;18.73;101660.86;107673;1269;138322;-77
2022/03/14 08:31:49;;;;;;;21.10;16.00;;;;;;;22.30;19.01;101662.67;107687;1271;110097;-76
2022/03/14 08:34:21;;;;;;;20.90;16.70;;;;;;;21.77;18.96;101669.95;107758;1270;108161;-77
2022/03/14 08:36:56;;;;;;;25.20;17.80;;;;;;;21.34;19.22;101666.29;107588;1271;137924;-77
2022/03/14 08:39:31;;;;;;;25.30;17.60;;;;;;;20.98;19.96;101667.17;107835;1269;95023;-76
2022/03/14 08:42:09;;;;;;;22.20;16.50;;;;;;;21.01;19.94;101670.08;107630;1270;137874;-76
2022/03/14 08:44:41;;;;;;;23.90;17.00;;;;;;;20.85;19.95;101666.27;107704;1270;111145;-76
2022/03/14 08:47:14;;;;;;;25.50;17.20;;;;;;;21.02;20.60;101661.00;107658;1269;138508;-76
2022/03/14 08:49:47;;;;;;;24.50;17.50;;;;;;;21.22;19.87;101662.92;107652;1270;108791;-75
2022/03/14 08:52:19;;;;;;;24.40;18.00;;;;;;;21.09;19.61;101657.91;107768;1269;96580;-75
2022/03/14 08:54:52;;;;;;;22.10;17.60;;;;;;;20.87;19.39;101664.43;107599;1271;137860;-75
2022/03/14 08:57:25;;;;;;;23.70;17.30;;;;;;;20.61;19.63;101662.61;107478;1271;110147;-76
2022/03/14 08:59:58;;;;;;;24.50;18.00;;;;;;;20.14;19.55;101670.06;107563;1269;138642;-76
2022/03/14 09:02:30;;;;;;;24.60;18.70;;;;;;;19.63;19.97;101666.55;107661;1270;107798;-76
2022/03/14 09:05:03;;;;;;;26.80;17.40;;;;;;;19.28;19.95;101672.88;107592;1270;138737;-76
2022/03/14 09:07:37;;;;;;;23.90;18.00;;;;;;;18.67;20.24;101668.73;107570;1271;95293;-76
2022/03/14 09:10:13;;;;;;;23.60;18.40;;;;;;;18.21;20.99;101668.92;107608;1270;110766;-76
2022/03/14 09:12:52;;;;;;;29.00;18.80;;;;;;;17.79;21.04;101671.84;107349;1269;138359;-75
2022/03/14 09:15:26;;;;;;;28.30;19.80;;;;;;;17.47;21.62;101667.26;107614;1270;108261;-76
2022/03/14 09:18:01;;;;;;;29.90;19.90;;;;;;;17.38;21.76;101670.44;107489;1269;138532;-76
2022/03/14 09:20:34;;;;;;;30.10;19.60;;;;;;;17.18;21.97;101659.21;107645;1269;94725;-75
2022/03/14 09:23:08;;;;;;;26.20;19.80;;;;;;;17.18;22.31;101658.70;107605;1270;137767;-75
2022/03/14 09:25:41;;;;;;;25.30;19.40;;;;;;;17.44;22.29;101663.48;107607;1270;108097;-75
2022/03/14 09:28:13;;;;;;;29.70;20.00;;;;;;;17.43;22.02;101660.58;107659;1270;108734;-76
2022/03/14 09:30:47;;;;;;;25.40;19.90;;;;;;;17.42;22.22;101662.89;107540;1268;137952;-78
2022/03/14 09:33:21;;;;;;;27.10;19.40;;;;;;;17.46;22.22;101662.91;107707;1269;94833;-75
2022/03/14 09:35:54;;;;;;;26.30;19.20;;;;;;;17.34;21.92;101661.41;107558;1268;137569;-77
2022/03/14 09:38:27;;;;;;;27.40;18.90;;;;;;;16.98;22.17;101652.06;107571;1270;109712;-74
2022/03/14 09:41:04;;;;;;;28.20;19.60;;;;;;;16.86;22.40;101649.50;107486;1269;137981;-75
2022/03/14 09:43:41;;;;;;;26.80;20.30;;;;;;;16.61;22.23;101647.19;107639;1270;94713;-76
2022/03/14 09:46:14;;;;;;;27.30;19.90;;;;;;;16.30;22.67;101645.26;107691;1270;94728;-75
2022/03/14 09:48:52;;;;;;;27.10;19.70;;;;;;;16.38;23.05;101643.98;107454;1268;138484;-77
2022/03/14 09:51:26;;;;;;;30.40;20.40;;;;;;;16.40;22.90;101644.60;107519;1271;108617;-77
2022/03/14 09:54:00;;;;;;;30.00;20.40;;;;;;;16.27;23.23;101645.89;107515;1269;138581;-77
2022/03/14 09:56:34;;;;;;;27.90;21.20;;;;;;;16.37;23.18;101639.61;107704;1268;95717;-74
2022/03/14 09:59:09;;;;;;;28.20;20.10;;;;;;;16.45;23.47;101642.50;107552;1268;138944;-74
2022/03/14 10:01:45;;;;;;;28.40;21.10;;;;;;;16.73;23.18;101640.30;107651;1270;110058;-74
2022/03/14 10:04:19;;;;;;;30.00;20.50;;;;;;;16.76;23.01;101643.73;107652;1270;108372;-74
2022/03/14 10:06:51;;;;;;;28.20;19.90;;;;;;;16.87;23.16;101646.11;107502;1269;137900;-74
2022/03/14 10:09:24;;;;;;;29.90;21.00;;;;;;;16.94;22.80;101640.09;107584;1271;95132;-75
2022/03/14 10:11:58;;;;;;;29.60;20.00;;;;;;;16.97;23.22;101637.34;107545;1269;137607;-75
2022/03/14 10:14:32;;;;;;;25.50;19.50;;;;;;;17.44;23.41;101645.94;107673;1270;110029;-74
2022/03/14 10:17:05;;;;;;;34.40;20.00;;;;;;;17.66;22.80;101644.23;107467;1270;137974;-74
2022/03/14 10:19:38;;;;;;;28.60;19.60;;;;;;;17.50;22.21;101647.10;107668;1269;109396;-75
2022/03/14 10:22:20;;;;;;;28.80;20.90;;;;;;;17.42;22.47;101645.82;107649;1268;94965;-74
2022/03/14 10:25:04;;;;;;;28.30;20.50;;;;;;;17.27;22.22;101650.09;107440;1270;137692;-75
2022/03/14 10:27:41;;;;;;;28.20;19.90;;;;;;;16.83;22.37;101637.69;107763;1268;110533;-74
2022/03/14 10:30:30;;;;;;;26.20;20.10;;;;;;;16.59;22.72;101633.58;107548;1270;138138;-77
2022/03/14 10:33:16;;;;;;;27.10;20.20;;;;;;;16.29;22.79;101636.90;107687;1270;109230;-75
2022/03/14 10:35:48;;;;;;;;;;;;;;;15.86;22.93;101633.21;107528;1269;137889;-76
2022/03/14 10:38:21;;;;;;;27.70;20.50;;;;;;;15.45;23.64;101636.04;107660;1269;94665;-77
2022/03/14 10:40:56;;;;;;;27.10;20.00;;;;;;;15.26;23.81;101637.67;107562;1268;137883;-76
2022/03/14 10:43:42;;;;;;;28.90;20.70;;;;;;;15.12;23.98;101636.67;107226;1271;109038;-76
2022/03/14 10:46:15;;;;;;;30.10;21.10;;;;;;;14.98;24.24;101630.05;107654;1269;106977;-77
2022/03/14 10:48:47;;;;;;;28.30;20.70;;;;;;;15.02;24.37;101629.76;107553;1268;137916;-76
2022/03/14 10:51:20;;;;;;;33.50;21.00;;;;;;;15.14;24.74;101629.80;107712;1268;94616;-75
2022/03/14 10:53:53;;;;;;;30.20;21.00;;;;;;;15.30;24.28;101631.93;107579;1268;137725;-75
2022/03/14 10:56:29;;;;;;;28.20;20.00;;;;;;;15.07;24.54;101625.08;107675;1268;109661;-75
2022/03/14 10:59:07;;;;;;;31.90;21.00;;;;;;;14.99;24.57;101631.79;107536;1268;138591;-75
2022/03/14 11:02:00;;;;;;;29.00;21.00;;;;;;;14.71;24.57;101624.52;107646;1268;94913;-75
2022/03/14 11:04:47;;;;;;;27.20;19.30;;;;;;;14.45;24.75;101625.36;107583;1271;95467;-75
2022/03/14 11:07:21;;;;;;;26.20;20.20;;;;;;;14.19;25.07;101628.13;107554;1269;138401;-76
2022/03/14 11:09:56;;;;;;;30.20;21.20;;;;;;;14.02;25.34;101628.91;107676;1269;108587;-75
2022/03/14 11:12:30;;;;;;;28.80;21.20;;;;;;;13.88;25.74;101621.03;107415;1268;137904;-75
2022/03/14 11:15:04;;;;;;;31.50;20.90;;;;;;;14.00;26.02;101616.88;107550;1270;94989;-76
2022/03/14 11:17:39;;;;;;;30.10;21.00;;;;;;;14.26;25.88;101610.64;107539;1269;138775;-76
2022/03/14 11:20:33;;;;;;;28.40;21.20;;;;;;;14.26;25.91;101609.04;107710;1269;111051;-77
2022/03/14 11:23:06;;;;;;;29.30;21.40;;;;;;;14.24;25.78;101605.96;107568;1268;139337;-76
2022/03/14 11:25:43;;;;;;;27.00;19.70;;;;;;;14.08;25.49;101605.83;107639;1269;107781;-77